Accueil
METAR-TAF:

METAR-TAF

Aéroports :

Bruxelles, Belgique

Aéroport de Bruxelles. Zaventem

latitude: 50-54N, longitude: 004-32E, altitude: 55 m

Observation

Le bulletin a été fait il y a 2 heures et 33 minutes, à 14:50 UTC
Vent 5 kt de nord/nord-est
Température 5°C
Humidité 60%
Pression 1018 hPa
Visibilité: 9000 m

METAR: EBBR 201450Z 02005KT 9000 NSC 05/M02 Q1018 NOSIG

Heure: 18:23 (17:23 UTC)

Prévision

Le bulletin a été fait il y a 6 heures et 13 minutes, à 11:10 UTC
Prévision valable du 20 à 12 UTC au 21 à 18 UTC
Vent 4 kt de nord/nord-est
Visibilité 10 km ou plus
Quelques nuages à une hauteur de 2000 ft

TAF: EBBR 201110Z 2012/2118 03004KT 9999 FEW020

Observations et prévisions météorologiques de plus de 4000 aéroports (messages METAR et TAF).

Les stations disponibles sont représentées par des disques jaunes et rouges sur la carte.

Passer la souris dessus pour voir le nom de la station.

Cliquer dessus pour voir les observations et prévisions météorologiques.

Pour changer de carte: cliquez sur les boutons verts avec une croix noire pour zoomer, sur le bouton vert avec un tiret pour effectuer un zoom arrière, ou sur les flèches vertes pour les cartes adjacentes.


METAR-TAF: